Terminal Aerodrome Forecast
Issued by NWS

Home | Current Version | Previous Version | Text Only | Print | Product List | Glossary On
Versions: 1 2 3 4 5 6 7 8 9 10 11 12 13 14 15 16 17 18 19 20 21 22 23 24 25 26 27 28 29 30
000
FTUS41 KBUF 192300
TAFIAG
TAF
KIAG 192320Z 2000/2024 09012KT P6SM BKN200
     FM200300 12011G25KT P6SM VCSH OVC080
     FM200500 11015G25KT 6SM -SHRA OVC045
     FM201100 15017G25KT 6SM -SHRA OVC025
     FM201300 16017G26KT P6SM VCSH OVC025
     FM201600 17016KT P6SM BKN040=

USA.gov is the U.S. government's official web portal to all federal, state and local government web resources and services.